SAS49 LOWW-EKCH
Flight info
| Callsign | SAS49 |
|---|---|
| Flight time | 1h 19m |
| Altitude | 40000 |
| Route | LANUX DCT VLM DCT HDO DCT BAKDO DCT KOSEB T298 MONAK |
| Aircraft | A333/H-SDE3GHIJ2J3J5M1RVWXY/LB2D1 |
Departure
| Time | 2026-04-22 19:05 |
|---|---|
| Airport | Vienna International Airport (LOWW) |
Arrival
| Time | 2026-04-22 20:25 |
|---|---|
| Airport | Copenhagen Kastrup Airport (EKCH) |
| Time | Latitude | Longitude | Altitude | Speed | Heading |
|---|---|---|---|---|---|
| 2026-04-22 18:29 | 48.12090 | 16.55175 | 620 ft | 0 kts | 299° |
| 2026-04-22 18:53 | 48.12087 | 16.55183 | 622 ft | 2 kts | 288° |
| 2026-04-22 18:54 | 48.12084 | 16.55207 | 611 ft | 2 kts | 262° |
| 2026-04-22 18:54 | 48.12089 | 16.55231 | 621 ft | 2 kts | 231° |
| 2026-04-22 18:54 | 48.12101 | 16.55247 | 621 ft | 2 kts | 213° |
| 2026-04-22 18:54 | 48.12112 | 16.55257 | 603 ft | 1 kts | 206° |
| 2026-04-22 18:55 | 48.12114 | 16.55259 | 603 ft | 0 kts | 205° |
| 2026-04-22 18:59 | 48.12102 | 16.55250 | 621 ft | 10 kts | 205° |
| 2026-04-22 18:59 | 48.12015 | 16.55190 | 616 ft | 14 kts | 204° |
| 2026-04-22 19:00 | 48.11938 | 16.55190 | 610 ft | 12 kts | 179° |
| 2026-04-22 19:00 | 48.11883 | 16.55218 | 627 ft | 6 kts | 131° |
| 2026-04-22 19:00 | 48.11840 | 16.55351 | 623 ft | 20 kts | 114° |
| 2026-04-22 19:00 | 48.11777 | 16.55540 | 621 ft | 20 kts | 116° |
| 2026-04-22 19:01 | 48.11716 | 16.55726 | 629 ft | 21 kts | 116° |
| 2026-04-22 19:01 | 48.11652 | 16.55919 | 634 ft | 20 kts | 116° |
| 2026-04-22 19:01 | 48.11587 | 16.56119 | 632 ft | 23 kts | 116° |
| 2026-04-22 19:01 | 48.11516 | 16.56339 | 630 ft | 25 kts | 116° |
| 2026-04-22 19:02 | 48.11438 | 16.56580 | 627 ft | 26 kts | 116° |
| 2026-04-22 19:02 | 48.11361 | 16.56821 | 634 ft | 22 kts | 115° |
| 2026-04-22 19:02 | 48.11299 | 16.57020 | 635 ft | 21 kts | 116° |
| 2026-04-22 19:02 | 48.11226 | 16.57221 | 634 ft | 22 kts | 116° |
| 2026-04-22 19:03 | 48.11155 | 16.57443 | 633 ft | 25 kts | 114° |
| 2026-04-22 19:03 | 48.11092 | 16.57532 | 633 ft | 5 kts | 192° |
| 2026-04-22 19:03 | 48.11075 | 16.57521 | 633 ft | 0 kts | 202° |
| 2026-04-22 19:04 | 48.11056 | 16.57510 | 629 ft | 9 kts | 203° |
| 2026-04-22 19:04 | 48.10991 | 16.57462 | 635 ft | 12 kts | 206° |
| 2026-04-22 19:04 | 48.10962 | 16.57407 | 633 ft | 5 kts | 274° |
| 2026-04-22 19:04 | 48.11002 | 16.57260 | 634 ft | 35 kts | 295° |
| 2026-04-22 19:05 | 48.11209 | 16.56633 | 629 ft | 98 kts | 296° |
| 2026-04-22 19:05 | 48.11599 | 16.55440 | 625 ft | 155 kts | 296° |
| 2026-04-22 19:05 | 48.12100 | 16.53847 | 1029 ft | 177 kts | 297° |
| 2026-04-22 19:05 | 48.12554 | 16.52147 | 2056 ft | 177 kts | 288° |
| 2026-04-22 19:06 | 48.12429 | 16.50306 | 2961 ft | 191 kts | 250° |
| 2026-04-22 19:06 | 48.11389 | 16.48878 | 3450 ft | 220 kts | 207° |
| 2026-04-22 19:06 | 48.09912 | 16.48074 | 4037 ft | 231 kts | 200° |
| 2026-04-22 19:07 | 48.07228 | 16.45493 | 4988 ft | 245 kts | 243° |
| 2026-04-22 19:07 | 48.06410 | 16.43130 | 5379 ft | 264 kts | 250° |
| 2026-04-22 19:07 | 48.05651 | 16.40589 | 6055 ft | 272 kts | 250° |
| 2026-04-22 19:07 | 48.04879 | 16.37978 | 6821 ft | 276 kts | 250° |
| 2026-04-22 19:08 | 48.04094 | 16.35342 | 7644 ft | 279 kts | 250° |
| 2026-04-22 19:08 | 48.03453 | 16.32649 | 8457 ft | 278 kts | 263° |
| 2026-04-22 19:08 | 48.03339 | 16.29777 | 9277 ft | 278 kts | 276° |
| 2026-04-22 19:08 | 48.03447 | 16.26874 | 10065 ft | 282 kts | 278° |
| 2026-04-22 19:09 | 48.03605 | 16.23882 | 10528 ft | 297 kts | 280° |
| 2026-04-22 19:09 | 48.04132 | 16.20839 | 10796 ft | 310 kts | 299° |
| 2026-04-22 19:09 | 48.04881 | 16.19004 | 11123 ft | 314 kts | 309° |
| 2026-04-22 19:09 | 48.06724 | 16.15530 | 11935 ft | 323 kts | 313° |
| 2026-04-22 19:10 | 48.08167 | 16.12917 | 12596 ft | 328 kts | 313° |
| 2026-04-22 19:10 | 48.09628 | 16.10259 | 13304 ft | 333 kts | 313° |
| 2026-04-22 19:10 | 48.11115 | 16.07579 | 13931 ft | 336 kts | 315° |
| 2026-04-22 19:10 | 48.12776 | 16.05141 | 14202 ft | 334 kts | 324° |
| 2026-04-22 19:11 | 48.14686 | 16.03269 | 14257 ft | 331 kts | 336° |
| 2026-04-22 19:11 | 48.16841 | 16.01921 | 14679 ft | 333 kts | 343° |
| 2026-04-22 19:11 | 48.18995 | 16.00763 | 15350 ft | 334 kts | 343° |
| 2026-04-22 19:11 | 48.21189 | 15.99601 | 16055 ft | 336 kts | 344° |
| 2026-04-22 19:12 | 48.23401 | 15.98428 | 16696 ft | 339 kts | 344° |
| 2026-04-22 19:12 | 48.25638 | 15.97237 | 17341 ft | 342 kts | 344° |
| 2026-04-22 19:12 | 48.27891 | 15.96034 | 17985 ft | 346 kts | 344° |
| 2026-04-22 19:12 | 48.30179 | 15.94809 | 18589 ft | 349 kts | 344° |
| 2026-04-22 19:13 | 48.32481 | 15.93574 | 19110 ft | 353 kts | 345° |
| 2026-04-22 19:13 | 48.34804 | 15.92326 | 19611 ft | 357 kts | 345° |
| 2026-04-22 19:13 | 48.37153 | 15.91062 | 20133 ft | 360 kts | 345° |
| 2026-04-22 19:13 | 48.39527 | 15.89784 | 20637 ft | 364 kts | 345° |
| 2026-04-22 19:14 | 48.41930 | 15.88489 | 21146 ft | 367 kts | 345° |
| 2026-04-22 19:14 | 48.44339 | 15.87189 | 21634 ft | 371 kts | 345° |
| 2026-04-22 19:14 | 48.46784 | 15.85868 | 22127 ft | 375 kts | 345° |
| 2026-04-22 19:14 | 48.49247 | 15.84536 | 22628 ft | 378 kts | 345° |
| 2026-04-22 19:15 | 48.50882 | 15.83651 | 22934 ft | 380 kts | 346° |
| 2026-04-22 19:15 | 48.54229 | 15.81838 | 23619 ft | 385 kts | 346° |
| 2026-04-22 19:15 | 48.56764 | 15.80463 | 24037 ft | 389 kts | 346° |
| 2026-04-22 19:15 | 48.59320 | 15.79077 | 24211 ft | 391 kts | 346° |
| 2026-04-22 19:16 | 48.61880 | 15.77687 | 24243 ft | 392 kts | 346° |
| 2026-04-22 19:16 | 48.64456 | 15.76286 | 24245 ft | 393 kts | 346° |
| 2026-04-22 19:16 | 48.67027 | 15.74884 | 24231 ft | 394 kts | 346° |
| 2026-04-22 19:16 | 48.69609 | 15.73476 | 24241 ft | 394 kts | 346° |
| 2026-04-22 19:17 | 48.72192 | 15.72065 | 24241 ft | 395 kts | 346° |
| 2026-04-22 19:17 | 48.74779 | 15.70650 | 24237 ft | 395 kts | 346° |
| 2026-04-22 19:17 | 48.77366 | 15.69234 | 24331 ft | 396 kts | 346° |
| 2026-04-22 19:17 | 48.79986 | 15.67934 | 24588 ft | 395 kts | 358° |
| 2026-04-22 19:18 | 48.82663 | 15.66834 | 24667 ft | 402 kts | 356° |
| 2026-04-22 19:18 | 48.85278 | 15.65358 | 24879 ft | 411 kts | 347° |
| 2026-04-22 19:18 | 48.87836 | 15.63416 | 25280 ft | 410 kts | 346° |
| 2026-04-22 19:18 | 48.90414 | 15.61624 | 25576 ft | 406 kts | 352° |
| 2026-04-22 19:19 | 48.93070 | 15.60110 | 25669 ft | 409 kts | 354° |
| 2026-04-22 19:19 | 48.95758 | 15.58629 | 25849 ft | 413 kts | 353° |
| 2026-04-22 19:19 | 48.98453 | 15.57075 | 26088 ft | 415 kts | 352° |
| 2026-04-22 19:19 | 49.01139 | 15.55445 | 26272 ft | 418 kts | 351° |
| 2026-04-22 19:20 | 49.03845 | 15.53733 | 26457 ft | 421 kts | 351° |
| 2026-04-22 19:20 | 49.06542 | 15.51969 | 26671 ft | 423 kts | 350° |
| 2026-04-22 19:20 | 49.09250 | 15.50169 | 26885 ft | 425 kts | 350° |
| 2026-04-22 19:20 | 49.11967 | 15.48351 | 27081 ft | 427 kts | 350° |
| 2026-04-22 19:21 | 49.14688 | 15.46527 | 27266 ft | 429 kts | 350° |
| 2026-04-22 19:21 | 49.17425 | 15.44685 | 27495 ft | 430 kts | 350° |
| 2026-04-22 19:21 | 49.20166 | 15.42844 | 27711 ft | 431 kts | 350° |
| 2026-04-22 19:21 | 49.22931 | 15.40996 | 27888 ft | 433 kts | 351° |
| 2026-04-22 19:22 | 49.25696 | 15.39145 | 28081 ft | 435 kts | 351° |
| 2026-04-22 19:22 | 49.28471 | 15.37285 | 28254 ft | 436 kts | 351° |
| 2026-04-22 19:22 | 49.31259 | 15.35414 | 28448 ft | 438 kts | 351° |
| 2026-04-22 19:22 | 49.34026 | 15.33553 | 28623 ft | 440 kts | 351° |
| 2026-04-22 19:23 | 49.36832 | 15.31663 | 28793 ft | 442 kts | 351° |
| 2026-04-22 19:23 | 49.39657 | 15.29765 | 28898 ft | 445 kts | 351° |
| 2026-04-22 19:23 | 49.42491 | 15.27847 | 29090 ft | 445 kts | 350° |
| 2026-04-22 19:23 | 49.45324 | 15.25921 | 29295 ft | 446 kts | 350° |
| 2026-04-22 19:24 | 49.48172 | 15.23994 | 29443 ft | 448 kts | 350° |
| 2026-04-22 19:24 | 49.50066 | 15.22712 | 29562 ft | 449 kts | 350° |
| 2026-04-22 19:24 | 49.52927 | 15.20774 | 29699 ft | 451 kts | 350° |
| 2026-04-22 19:24 | 49.55804 | 15.18819 | 29877 ft | 452 kts | 350° |
| 2026-04-22 19:25 | 49.58685 | 15.16858 | 30045 ft | 453 kts | 350° |
| 2026-04-22 19:25 | 49.61582 | 15.14884 | 30189 ft | 455 kts | 350° |
| 2026-04-22 19:25 | 49.64476 | 15.12911 | 30357 ft | 456 kts | 350° |
| 2026-04-22 19:25 | 49.67379 | 15.10925 | 30513 ft | 456 kts | 350° |
| 2026-04-22 19:26 | 49.70284 | 15.08929 | 30707 ft | 456 kts | 350° |
| 2026-04-22 19:26 | 49.73203 | 15.07061 | 30901 ft | 453 kts | 353° |
| 2026-04-22 19:26 | 49.76157 | 15.05378 | 30956 ft | 454 kts | 354° |
| 2026-04-22 19:27 | 49.82143 | 15.02152 | 31181 ft | 456 kts | 355° |
| 2026-04-22 19:27 | 49.85137 | 15.00530 | 31330 ft | 457 kts | 354° |
| 2026-04-22 19:27 | 49.88142 | 14.98887 | 31469 ft | 457 kts | 354° |
| 2026-04-22 19:28 | 49.94113 | 14.95585 | 31673 ft | 460 kts | 354° |
| 2026-04-22 19:28 | 49.97128 | 14.93900 | 31807 ft | 461 kts | 354° |
| 2026-04-22 19:28 | 50.00183 | 14.92184 | 31942 ft | 462 kts | 354° |
| 2026-04-22 19:28 | 50.03169 | 14.90505 | 32077 ft | 462 kts | 354° |
| 2026-04-22 19:29 | 50.06199 | 14.88799 | 32186 ft | 463 kts | 354° |
| 2026-04-22 19:29 | 50.09231 | 14.87089 | 32310 ft | 464 kts | 354° |
| 2026-04-22 19:29 | 50.12269 | 14.85374 | 32439 ft | 465 kts | 354° |
| 2026-04-22 19:29 | 50.15320 | 14.83651 | 32541 ft | 465 kts | 354° |
| 2026-04-22 19:30 | 50.17339 | 14.82509 | 32628 ft | 465 kts | 354° |
| 2026-04-22 19:30 | 50.21416 | 14.80208 | 32764 ft | 466 kts | 354° |
| 2026-04-22 19:30 | 50.24471 | 14.78484 | 32899 ft | 466 kts | 354° |
| 2026-04-22 19:30 | 50.27481 | 14.76783 | 33038 ft | 466 kts | 354° |
| 2026-04-22 19:31 | 50.30524 | 14.75064 | 33188 ft | 465 kts | 355° |
| 2026-04-22 19:31 | 50.33574 | 14.73340 | 33308 ft | 465 kts | 355° |
| 2026-04-22 19:31 | 50.36613 | 14.71620 | 33439 ft | 465 kts | 355° |
| 2026-04-22 19:31 | 50.39662 | 14.69890 | 33574 ft | 465 kts | 355° |
| 2026-04-22 19:32 | 50.42704 | 14.68165 | 33622 ft | 466 kts | 355° |
| 2026-04-22 19:32 | 50.48805 | 14.64688 | 33791 ft | 466 kts | 355° |
| 2026-04-22 19:32 | 50.51854 | 14.62939 | 33918 ft | 466 kts | 355° |
| 2026-04-22 19:33 | 50.54897 | 14.61193 | 34028 ft | 466 kts | 355° |
| 2026-04-22 19:33 | 50.61003 | 14.57690 | 34192 ft | 466 kts | 356° |
| 2026-04-22 19:34 | 50.67072 | 14.54201 | 34269 ft | 467 kts | 356° |
| 2026-04-22 19:34 | 50.73185 | 14.50661 | 34455 ft | 466 kts | 356° |
| 2026-04-22 19:34 | 50.76212 | 14.48897 | 34674 ft | 462 kts | 356° |
| 2026-04-22 19:35 | 50.79216 | 14.47157 | 34878 ft | 457 kts | 356° |
| 2026-04-22 19:35 | 50.82196 | 14.45441 | 35057 ft | 453 kts | 357° |
| 2026-04-22 19:35 | 50.85152 | 14.43750 | 35197 ft | 451 kts | 357° |
| 2026-04-22 19:35 | 50.88102 | 14.42062 | 35315 ft | 448 kts | 357° |
| 2026-04-22 19:36 | 50.90999 | 14.40398 | 35438 ft | 445 kts | 357° |
| 2026-04-22 19:36 | 50.93900 | 14.38859 | 35613 ft | 435 kts | 4° |
| 2026-04-22 19:36 | 50.96824 | 14.37659 | 35636 ft | 433 kts | 4° |
| 2026-04-22 19:37 | 51.02622 | 14.35330 | 35808 ft | 426 kts | 5° |
| 2026-04-22 19:37 | 51.05484 | 14.34197 | 35912 ft | 422 kts | 5° |
| 2026-04-22 19:37 | 51.08321 | 14.33077 | 36007 ft | 418 kts | 6° |
| 2026-04-22 19:38 | 51.13900 | 14.30866 | 36166 ft | 408 kts | 7° |
| 2026-04-22 19:38 | 51.19345 | 14.28696 | 36258 ft | 398 kts | 8° |
| 2026-04-22 19:39 | 51.24649 | 14.26563 | 36259 ft | 389 kts | 9° |
| 2026-04-22 19:39 | 51.27257 | 14.25537 | 36295 ft | 383 kts | 348° |
| 2026-04-22 19:39 | 51.29837 | 14.24300 | 36373 ft | 391 kts | 350° |
| 2026-04-22 19:39 | 51.32461 | 14.22920 | 36278 ft | 402 kts | 349° |
| 2026-04-22 19:40 | 51.35104 | 14.21425 | 36255 ft | 413 kts | 346° |
| 2026-04-22 19:40 | 51.40559 | 14.17972 | 36261 ft | 428 kts | 347° |
| 2026-04-22 19:41 | 51.46299 | 14.14949 | 36254 ft | 439 kts | 351° |
| 2026-04-22 19:41 | 51.52207 | 14.12359 | 36258 ft | 439 kts | 353° |
| 2026-04-22 19:42 | 51.58128 | 14.09916 | 36255 ft | 438 kts | 353° |
| 2026-04-22 19:42 | 51.64043 | 14.07475 | 36253 ft | 438 kts | 353° |
| 2026-04-22 19:43 | 51.72871 | 14.03780 | 36258 ft | 438 kts | 353° |
| 2026-04-22 19:43 | 51.78781 | 14.01286 | 36259 ft | 438 kts | 353° |
| 2026-04-22 19:44 | 51.84686 | 13.98788 | 36254 ft | 438 kts | 353° |
| 2026-04-22 19:44 | 51.90589 | 13.96285 | 36265 ft | 438 kts | 353° |
| 2026-04-22 19:45 | 51.96460 | 13.93788 | 36254 ft | 438 kts | 353° |
| 2026-04-22 19:45 | 52.02354 | 13.91275 | 36259 ft | 437 kts | 353° |
| 2026-04-22 19:46 | 52.08241 | 13.88759 | 36258 ft | 437 kts | 353° |
| 2026-04-22 19:46 | 52.14147 | 13.86229 | 36268 ft | 439 kts | 353° |
| 2026-04-22 19:47 | 52.17086 | 13.84970 | 36263 ft | 439 kts | 340° |
| 2026-04-22 19:47 | 52.19991 | 13.83379 | 36227 ft | 442 kts | 336° |
| 2026-04-22 19:47 | 52.25730 | 13.79843 | 36280 ft | 438 kts | 353° |
| 2026-04-22 19:48 | 52.28680 | 13.78651 | 36250 ft | 436 kts | 340° |
| 2026-04-22 19:48 | 52.31585 | 13.77152 | 36251 ft | 438 kts | 338° |
| 2026-04-22 19:48 | 52.37331 | 13.73959 | 36258 ft | 434 kts | 338° |
| 2026-04-22 19:49 | 52.40237 | 13.72769 | 36291 ft | 429 kts | 358° |
| 2026-04-22 19:49 | 52.43196 | 13.72080 | 36270 ft | 431 kts | 0° |
| 2026-04-22 19:49 | 52.49112 | 13.70661 | 36262 ft | 433 kts | 357° |
| 2026-04-22 19:50 | 52.55037 | 13.68551 | 36266 ft | 436 kts | 354° |
| 2026-04-22 19:50 | 52.60916 | 13.66026 | 36265 ft | 437 kts | 352° |
| 2026-04-22 19:51 | 52.66782 | 13.63397 | 36254 ft | 437 kts | 352° |
| 2026-04-22 19:51 | 52.72680 | 13.60767 | 36264 ft | 439 kts | 352° |
| 2026-04-22 19:52 | 52.78548 | 13.58165 | 36265 ft | 439 kts | 352° |
| 2026-04-22 19:52 | 52.84455 | 13.55547 | 36265 ft | 439 kts | 352° |
| 2026-04-22 19:53 | 52.90363 | 13.52924 | 36266 ft | 439 kts | 352° |
| 2026-04-22 19:53 | 52.96267 | 13.50295 | 36266 ft | 439 kts | 352° |
| 2026-04-22 19:54 | 53.02166 | 13.47658 | 36265 ft | 438 kts | 352° |
| 2026-04-22 19:54 | 53.08026 | 13.45032 | 36265 ft | 437 kts | 352° |
| 2026-04-22 19:55 | 53.13913 | 13.42388 | 36263 ft | 437 kts | 352° |
| 2026-04-22 19:55 | 53.19777 | 13.39746 | 36259 ft | 437 kts | 352° |
| 2026-04-22 19:56 | 53.25667 | 13.37087 | 36256 ft | 439 kts | 352° |
| 2026-04-22 19:56 | 53.31571 | 13.34411 | 36263 ft | 439 kts | 352° |
| 2026-04-22 19:57 | 53.37465 | 13.31731 | 36263 ft | 438 kts | 352° |
| 2026-04-22 19:57 | 53.43323 | 13.29061 | 36262 ft | 438 kts | 352° |
| 2026-04-22 19:58 | 53.49216 | 13.26368 | 36260 ft | 438 kts | 352° |
| 2026-04-22 19:58 | 53.55106 | 13.23668 | 36261 ft | 438 kts | 352° |
| 2026-04-22 20:00 | 53.75659 | 13.14184 | 36259 ft | 437 kts | 351° |
| 2026-04-22 20:01 | 53.81497 | 13.11475 | 36255 ft | 438 kts | 351° |
| 2026-04-22 20:01 | 53.87386 | 13.08732 | 36256 ft | 439 kts | 351° |
| 2026-04-22 20:01 | 53.90340 | 13.07355 | 36110 ft | 444 kts | 351° |
| 2026-04-22 20:02 | 53.93340 | 13.05959 | 35894 ft | 446 kts | 351° |
| 2026-04-22 20:02 | 53.96301 | 13.04567 | 35717 ft | 438 kts | 351° |
| 2026-04-22 20:02 | 53.99234 | 13.03184 | 35097 ft | 440 kts | 352° |
| 2026-04-22 20:02 | 54.02207 | 13.01792 | 34368 ft | 446 kts | 352° |
| 2026-04-22 20:03 | 54.05223 | 13.00382 | 33537 ft | 450 kts | 351° |
| 2026-04-22 20:03 | 54.08246 | 12.98964 | 32807 ft | 452 kts | 351° |
| 2026-04-22 20:03 | 54.11291 | 12.97529 | 32065 ft | 454 kts | 351° |
| 2026-04-22 20:03 | 54.14326 | 12.96002 | 31384 ft | 456 kts | 349° |
| 2026-04-22 20:04 | 54.17336 | 12.94359 | 30914 ft | 451 kts | 348° |
| 2026-04-22 20:04 | 54.20309 | 12.92674 | 30381 ft | 448 kts | 347° |
| 2026-04-22 20:04 | 54.23240 | 12.90994 | 29781 ft | 445 kts | 347° |
| 2026-04-22 20:04 | 54.26180 | 12.89309 | 29219 ft | 441 kts | 347° |
| 2026-04-22 20:05 | 54.29072 | 12.87658 | 28689 ft | 436 kts | 347° |
| 2026-04-22 20:05 | 54.31943 | 12.86028 | 28117 ft | 433 kts | 347° |
| 2026-04-22 20:05 | 54.34754 | 12.84437 | 27580 ft | 429 kts | 347° |
| 2026-04-22 20:05 | 54.37560 | 12.82852 | 27062 ft | 425 kts | 346° |
| 2026-04-22 20:06 | 54.40369 | 12.81283 | 26535 ft | 420 kts | 348° |
| 2026-04-22 20:06 | 54.43170 | 12.80011 | 26198 ft | 412 kts | 350° |
| 2026-04-22 20:06 | 54.45931 | 12.78784 | 25948 ft | 409 kts | 350° |
| 2026-04-22 20:06 | 54.48696 | 12.77575 | 25698 ft | 408 kts | 350° |
| 2026-04-22 20:07 | 54.51447 | 12.76387 | 25454 ft | 407 kts | 350° |
| 2026-04-22 20:07 | 54.54194 | 12.75211 | 25159 ft | 406 kts | 350° |
| 2026-04-22 20:07 | 54.56934 | 12.74042 | 24722 ft | 404 kts | 350° |
| 2026-04-22 20:07 | 54.59653 | 12.72882 | 24267 ft | 401 kts | 350° |
| 2026-04-22 20:08 | 54.62350 | 12.71729 | 23819 ft | 397 kts | 349° |
| 2026-04-22 20:08 | 54.65013 | 12.70589 | 23302 ft | 393 kts | 349° |
| 2026-04-22 20:08 | 54.67652 | 12.69457 | 22776 ft | 389 kts | 349° |
| 2026-04-22 20:08 | 54.70242 | 12.68345 | 22284 ft | 385 kts | 349° |
| 2026-04-22 20:09 | 54.72833 | 12.67231 | 21727 ft | 382 kts | 349° |
| 2026-04-22 20:09 | 54.75410 | 12.66123 | 21096 ft | 382 kts | 349° |
| 2026-04-22 20:09 | 54.77985 | 12.65014 | 20478 ft | 381 kts | 348° |
| 2026-04-22 20:09 | 54.80556 | 12.63906 | 19782 ft | 379 kts | 348° |
| 2026-04-22 20:10 | 54.83091 | 12.62809 | 19042 ft | 369 kts | 348° |
| 2026-04-22 20:10 | 54.85543 | 12.61744 | 18292 ft | 359 kts | 348° |
| 2026-04-22 20:10 | 54.87956 | 12.60697 | 17495 ft | 354 kts | 347° |
| 2026-04-22 20:10 | 54.90325 | 12.59668 | 16696 ft | 346 kts | 347° |
| 2026-04-22 20:11 | 54.92617 | 12.58671 | 15936 ft | 335 kts | 347° |
| 2026-04-22 20:11 | 54.94844 | 12.57702 | 15187 ft | 325 kts | 347° |
| 2026-04-22 20:11 | 54.96283 | 12.57076 | 14704 ft | 319 kts | 347° |
| 2026-04-22 20:11 | 54.98408 | 12.56149 | 13976 ft | 311 kts | 346° |
| 2026-04-22 20:12 | 55.00480 | 12.55245 | 13174 ft | 303 kts | 346° |
| 2026-04-22 20:12 | 55.02500 | 12.54364 | 12417 ft | 296 kts | 346° |
| 2026-04-22 20:12 | 55.04481 | 12.53499 | 11653 ft | 290 kts | 346° |
| 2026-04-22 20:12 | 55.06413 | 12.52654 | 10968 ft | 283 kts | 346° |
| 2026-04-22 20:13 | 55.08276 | 12.51837 | 10516 ft | 270 kts | 346° |
| 2026-04-22 20:13 | 55.10087 | 12.51043 | 10084 ft | 266 kts | 346° |
| 2026-04-22 20:13 | 55.11885 | 12.50255 | 9614 ft | 266 kts | 346° |
| 2026-04-22 20:13 | 55.13669 | 12.49471 | 9283 ft | 261 kts | 346° |
| 2026-04-22 20:14 | 55.15401 | 12.48710 | 9060 ft | 259 kts | 346° |
| 2026-04-22 20:14 | 55.17150 | 12.47941 | 8583 ft | 259 kts | 346° |
| 2026-04-22 20:14 | 55.18877 | 12.47180 | 8123 ft | 252 kts | 346° |
| 2026-04-22 20:14 | 55.20536 | 12.46449 | 7698 ft | 241 kts | 345° |
| 2026-04-22 20:15 | 55.22115 | 12.45753 | 7256 ft | 227 kts | 345° |
| 2026-04-22 20:15 | 55.23605 | 12.45096 | 6820 ft | 215 kts | 345° |
| 2026-04-22 20:15 | 55.25024 | 12.44470 | 6370 ft | 206 kts | 345° |
| 2026-04-22 20:15 | 55.26398 | 12.43863 | 5893 ft | 200 kts | 345° |
| 2026-04-22 20:16 | 55.27728 | 12.43273 | 5434 ft | 196 kts | 345° |
| 2026-04-22 20:16 | 55.29045 | 12.42690 | 5045 ft | 195 kts | 345° |
| 2026-04-22 20:16 | 55.30363 | 12.42105 | 4682 ft | 195 kts | 344° |
| 2026-04-22 20:16 | 55.31681 | 12.41519 | 4351 ft | 194 kts | 344° |
| 2026-04-22 20:17 | 55.32986 | 12.40940 | 4049 ft | 193 kts | 344° |
| 2026-04-22 20:17 | 55.34284 | 12.40363 | 3748 ft | 192 kts | 343° |
| 2026-04-22 20:17 | 55.35571 | 12.39889 | 3481 ft | 186 kts | 6° |
| 2026-04-22 20:17 | 55.36876 | 12.39882 | 3200 ft | 193 kts | 13° |
| 2026-04-22 20:18 | 55.38205 | 12.39817 | 3027 ft | 187 kts | 347° |
| 2026-04-22 20:18 | 55.39396 | 12.39206 | 3020 ft | 174 kts | 338° |
| 2026-04-22 20:18 | 55.40486 | 12.38410 | 3019 ft | 167 kts | 335° |
| 2026-04-22 20:18 | 55.41563 | 12.37682 | 3025 ft | 166 kts | 341° |
| 2026-04-22 20:19 | 55.42699 | 12.37298 | 3029 ft | 167 kts | 352° |
| 2026-04-22 20:19 | 55.43864 | 12.37548 | 3037 ft | 173 kts | 13° |
| 2026-04-22 20:19 | 55.44950 | 12.38549 | 3024 ft | 179 kts | 28° |
| 2026-04-22 20:19 | 55.45937 | 12.39921 | 3027 ft | 181 kts | 34° |
| 2026-04-22 20:20 | 55.46888 | 12.41375 | 3028 ft | 181 kts | 34° |
| 2026-04-22 20:20 | 55.47836 | 12.42835 | 3011 ft | 181 kts | 34° |
| 2026-04-22 20:20 | 55.48792 | 12.44285 | 2826 ft | 180 kts | 34° |
| 2026-04-22 20:20 | 55.49739 | 12.45731 | 2558 ft | 179 kts | 35° |
| 2026-04-22 20:21 | 55.50648 | 12.47135 | 2296 ft | 170 kts | 34° |
| 2026-04-22 20:21 | 55.51512 | 12.48469 | 2070 ft | 160 kts | 34° |
| 2026-04-22 20:21 | 55.52324 | 12.49717 | 1846 ft | 149 kts | 34° |
| 2026-04-22 20:21 | 55.53082 | 12.50886 | 1658 ft | 141 kts | 33° |
| 2026-04-22 20:22 | 55.53819 | 12.52019 | 1475 ft | 141 kts | 33° |
| 2026-04-22 20:22 | 55.54549 | 12.53187 | 1323 ft | 142 kts | 35° |
| 2026-04-22 20:22 | 55.55291 | 12.54367 | 1071 ft | 143 kts | 33° |
| 2026-04-22 20:22 | 55.56034 | 12.55484 | 870 ft | 140 kts | 33° |
| 2026-04-22 20:23 | 55.56786 | 12.56615 | 701 ft | 143 kts | 36° |
| 2026-04-22 20:23 | 55.57544 | 12.57789 | 503 ft | 146 kts | 37° |
| 2026-04-22 20:23 | 55.58312 | 12.58957 | 295 ft | 144 kts | 37° |
| 2026-04-22 20:23 | 55.59059 | 12.60116 | 107 ft | 145 kts | 37° |
| 2026-04-22 20:24 | 55.59796 | 12.61249 | 25 ft | 124 kts | 41° |
| 2026-04-22 20:24 | 55.60349 | 12.62092 | 22 ft | 91 kts | 41° |
| 2026-04-22 20:24 | 55.60761 | 12.62725 | 27 ft | 68 kts | 41° |
| 2026-04-22 20:24 | 55.61079 | 12.63213 | 30 ft | 53 kts | 43° |
| 2026-04-22 20:25 | 55.61279 | 12.63312 | 30 ft | 19 kts | 356° |
| 2026-04-22 20:25 | 55.61324 | 12.63307 | 27 ft | 0 kts | 358° |
| 2026-04-22 20:25 | 55.61331 | 12.63307 | 29 ft | 3 kts | 358° |
| 2026-04-22 20:26 | 55.61364 | 12.63313 | 25 ft | 8 kts | 15° |
| 2026-04-22 20:26 | 55.61419 | 12.63370 | 29 ft | 11 kts | 39° |
| 2026-04-22 20:26 | 55.61515 | 12.63516 | 25 ft | 26 kts | 42° |
| 2026-04-22 20:26 | 55.61653 | 12.63728 | 24 ft | 27 kts | 40° |
| 2026-04-22 20:27 | 55.61701 | 12.63800 | 28 ft | 27 kts | 40° |
| 2026-04-22 20:27 | 55.61743 | 12.63863 | 28 ft | 5 kts | 40° |
| 2026-04-22 20:27 | 55.61839 | 12.64014 | 30 ft | 25 kts | 41° |
| 2026-04-22 20:28 | 55.61988 | 12.64163 | 28 ft | 26 kts | 20° |
| 2026-04-22 20:28 | 55.62150 | 12.64308 | 25 ft | 27 kts | 23° |
| 2026-04-22 20:28 | 55.62320 | 12.64420 | 25 ft | 25 kts | 15° |
| 2026-04-22 20:28 | 55.62386 | 12.64497 | 27 ft | 3 kts | 86° |
| 2026-04-22 20:29 | 55.62376 | 12.64557 | 27 ft | 12 kts | 112° |
| 2026-04-22 20:29 | 55.62332 | 12.64706 | 29 ft | 9 kts | 94° |
| 2026-04-22 20:29 | 55.62350 | 12.64847 | 28 ft | 16 kts | 90° |
| 2026-04-22 20:29 | 55.62308 | 12.64988 | 28 ft | 14 kts | 121° |
| 2026-04-22 20:30 | 55.62285 | 12.65155 | 29 ft | 9 kts | 72° |
| 2026-04-22 20:30 | 55.62328 | 12.65184 | 30 ft | 14 kts | 8° |
| 2026-04-22 20:30 | 55.62472 | 12.65190 | 24 ft | 23 kts | 0° |
| 2026-04-22 20:30 | 55.62609 | 12.65170 | 28 ft | 14 kts | 350° |
| 2026-04-22 20:31 | 55.62641 | 12.65113 | 27 ft | 3 kts | 265° |
| 2026-04-22 20:31 | 55.62642 | 12.65077 | 27 ft | 0 kts | 278° |